Terminal Aerodrome Forecast
Issued by NWS

Home | Current Version | Previous Version | Text Only | Print | Product List | Glossary On
Versions: 1 2 3 4 5 6 7 8 9 10 11
128
FTUS43 KEAX 240520
TAFSTJ
TAF
KSTJ 240520Z 2406/2506 19008KT P6SM SCT250
     FM241400 17018G30KT P6SM FEW250
     FM250100 18011KT P6SM SCT250
     FM250400 18008KT P6SM BKN250 WS015/20035KT=

USA.gov is the U.S. government's official web portal to all federal, state and local government web resources and services.